Time;durP1;ratioP1;P1;durP2;ratioP2;P2;SDS_P1;SDS_P2;PMS_P1;PMS_P2;Temp;Humidity;BMP_temperature;BMP_pressure;BME280_temperature;BME280_humidity;BME280_pressure;Samples;Min_cycle;Max_cycle;Signal;HPM_P1;HPM_P2
2023/12/26 00:02:42;;;;;;;4.72;2.17;;;11.60;99.90;;;;;;6208210;23;20020;-65
2023/12/26 00:05:30;;;;;;;5.22;2.35;;;11.60;99.90;;;;;;6210410;23;20031;-65
2023/12/26 00:08:16;;;;;;;4.90;2.28;;;11.60;99.90;;;;;;6207370;23;20083;-66
2023/12/26 00:11:02;;;;;;;2.05;1.48;;;11.60;99.90;;;;;;6207996;23;20040;-67
2023/12/26 00:13:48;;;;;;;2.38;1.45;;;11.60;99.90;;;;;;6209336;23;20025;-67
2023/12/26 00:16:34;;;;;;;6.00;1.17;;;11.60;99.90;;;;;;6209368;23;20008;-66
2023/12/26 00:19:20;;;;;;;2.20;1.13;;;11.60;99.90;;;;;;6206591;23;20008;-66
2023/12/26 00:22:06;;;;;;;2.20;1.20;;;11.60;99.90;;;;;;6209088;23;20095;-66
2023/12/26 00:24:52;;;;;;;5.45;1.20;;;11.60;99.90;;;;;;6209632;23;20087;-67
2023/12/26 00:27:39;;;;;;;2.90;1.30;;;11.60;99.90;;;;;;6209555;23;20079;-66
2023/12/26 00:30:25;;;;;;;2.15;1.20;;;11.50;99.90;;;;;;6208842;23;20091;-65
2023/12/26 00:33:12;;;;;;;4.32;1.55;;;11.50;99.90;;;;;;6209825;23;20075;-66
2023/12/26 00:35:59;;;;;;;1.88;1.20;;;11.60;99.90;;;;;;6210177;23;20019;-66
2023/12/26 00:38:46;;;;;;;1.40;0.98;;;11.50;99.90;;;;;;6211110;23;20015;-66
2023/12/26 00:41:32;;;;;;;1.20;1.10;;;11.50;99.90;;;;;;6211973;23;20512;-66
2023/12/26 00:44:18;;;;;;;3.70;1.73;;;11.60;99.90;;;;;;6211113;23;20015;-66
2023/12/26 00:47:04;;;;;;;1.85;1.30;;;11.60;99.90;;;;;;6210651;23;20052;-66
2023/12/26 00:49:50;;;;;;;3.30;1.20;;;11.60;99.90;;;;;;6211164;23;20008;-65
2023/12/26 00:52:36;;;;;;;2.42;1.05;;;11.50;99.90;;;;;;6209207;23;20074;-66
2023/12/26 00:55:23;;;;;;;2.22;1.10;;;11.50;99.90;;;;;;6210801;23;20349;-66
2023/12/26 00:58:09;;;;;;;1.85;1.25;;;11.50;99.90;;;;;;6212135;23;20016;-66
2023/12/26 01:00:55;;;;;;;2.13;1.27;;;11.50;99.90;;;;;;6211647;23;20071;-66
2023/12/26 01:03:41;;;;;;;1.75;1.15;;;11.50;99.90;;;;;;6210388;23;20346;-65
2023/12/26 01:06:27;;;;;;;2.33;1.30;;;11.50;99.90;;;;;;6210966;23;20066;-64
2023/12/26 01:09:13;;;;;;;2.28;1.30;;;11.50;99.90;;;;;;6211419;23;20020;-64
2023/12/26 01:11:59;;;;;;;2.15;1.15;;;11.50;99.90;;;;;;6210141;23;20107;-64
2023/12/26 01:14:45;;;;;;;1.90;1.25;;;11.50;99.90;;;;;;6210145;23;20062;-64
2023/12/26 01:17:31;;;;;;;2.17;1.20;;;11.50;99.90;;;;;;6211410;23;20012;-64
2023/12/26 01:20:17;;;;;;;1.38;1.20;;;11.50;99.90;;;;;;6211396;23;20357;-64
2023/12/26 01:23:04;;;;;;;1.67;1.20;;;11.50;99.90;;;;;;6211957;23;20021;-64
2023/12/26 01:25:50;;;;;;;1.27;1.10;;;11.50;99.90;;;;;;6210398;23;20017;-65
2023/12/26 01:28:36;;;;;;;1.75;1.40;;;11.50;99.90;;;;;;6210099;23;20218;-64
2023/12/26 01:31:22;;;;;;;1.77;1.27;;;11.50;99.90;;;;;;6210357;23;20004;-65
2023/12/26 01:34:08;;;;;;;2.20;1.27;;;11.50;99.90;;;;;;6212116;23;20034;-65
2023/12/26 01:36:54;;;;;;;3.75;1.35;;;11.50;99.90;;;;;;6210729;23;20009;-64
2023/12/26 01:39:40;;;;;;;2.17;1.30;;;11.50;99.90;;;;;;6210474;23;20008;-64
2023/12/26 01:42:26;;;;;;;2.67;1.70;;;11.50;99.90;;;;;;6210971;23;20021;-64
2023/12/26 01:45:12;;;;;;;1.80;0.98;;;11.60;99.90;;;;;;6188941;23;20405;-64
2023/12/26 01:47:59;;;;;;;1.48;1.10;;;11.60;99.90;;;;;;6190017;23;20024;-64
2023/12/26 01:50:46;;;;;;;1.05;0.75;;;11.60;99.90;;;;;;6210459;23;20095;-64
2023/12/26 01:53:34;;;;;;;0.82;0.73;;;11.60;99.90;;;;;;6209840;23;20034;-64
2023/12/26 01:56:21;;;;;;;1.23;0.90;;;11.60;99.90;;;;;;6210565;23;20004;-65
2023/12/26 01:59:07;;;;;;;1.70;0.90;;;11.60;99.90;;;;;;6210543;23;20086;-65
2023/12/26 02:01:54;;;;;;;1.20;0.90;;;11.60;99.90;;;;;;6209880;23;20442;-65
2023/12/26 02:04:41;;;;;;;1.23;0.90;;;11.70;99.90;;;;;;6210544;23;20000;-66
2023/12/26 02:07:27;;;;;;;1.73;0.98;;;11.70;99.90;;;;;;6210995;23;20013;-66
2023/12/26 02:10:13;;;;;;;1.50;0.80;;;11.70;99.90;;;;;;6209695;23;20021;-66
2023/12/26 02:12:59;;;;;;;0.90;0.80;;;11.70;99.90;;;;;;6211583;23;20012;-66
2023/12/26 02:15:51;;;;;;;1.73;1.00;;;11.70;99.90;;;;;;6210892;23;20083;-66
2023/12/26 02:18:38;;;;;;;1.00;0.82;;;11.80;99.90;;;;;;6209698;23;20024;-66
2023/12/26 02:21:24;;;;;;;1.63;0.70;;;11.80;99.90;;;;;;6209712;23;20417;-65
2023/12/26 02:24:10;;;;;;;0.80;0.70;;;11.80;99.90;;;;;;6210351;23;20030;-65
2023/12/26 02:26:56;;;;;;;1.00;0.77;;;11.80;99.90;;;;;;6210285;23;20063;-65
2023/12/26 02:29:47;;;;;;;0.75;0.60;;;11.80;99.90;;;;;;6209616;23;20016;-65
2023/12/26 02:32:37;;;;;;;0.70;0.70;;;11.80;99.90;;;;;;6211044;23;20337;-65
2023/12/26 02:35:23;;;;;;;1.40;1.00;;;11.80;99.90;;;;;;6210850;23;20046;-65
2023/12/26 02:38:09;;;;;;;0.60;0.60;;;11.80;99.90;;;;;;6208814;23;20009;-64
2023/12/26 02:40:55;;;;;;;1.58;0.80;;;11.80;99.90;;;;;;6210200;23;20063;-65
2023/12/26 02:43:41;;;;;;;1.23;0.90;;;11.80;99.90;;;;;;6211158;23;20425;-66
2023/12/26 02:46:27;;;;;;;0.60;0.60;;;11.80;99.90;;;;;;6210211;23;20012;-66
2023/12/26 02:49:13;;;;;;;0.70;0.70;;;11.80;99.90;;;;;;6209924;23;20091;-66
2023/12/26 02:51:59;;;;;;;1.35;0.93;;;11.80;99.90;;;;;;6209791;23;20008;-66
2023/12/26 02:54:44;;;;;;;1.38;0.77;;;11.80;99.90;;;;;;6209681;23;20008;-66
2023/12/26 02:57:30;;;;;;;0.77;0.57;;;11.80;99.90;;;;;;6210112;23;20013;-65
2023/12/26 03:00:17;;;;;;;0.90;0.57;;;11.80;99.90;;;;;;6209293;23;20517;-64
2023/12/26 03:03:03;;;;;;;1.00;0.68;;;11.90;99.90;;;;;;6211290;23;20016;-64
2023/12/26 03:05:49;;;;;;;0.52;0.52;;;11.90;99.90;;;;;;6209477;23;20099;-66
2023/12/26 03:08:35;;;;;;;0.50;0.50;;;11.90;99.90;;;;;;6210189;23;20297;-66
2023/12/26 03:11:21;;;;;;;0.32;0.32;;;11.90;99.90;;;;;;6209858;23;20441;-66
2023/12/26 03:14:07;;;;;;;0.57;0.57;;;11.90;99.90;;;;;;6210474;23;20016;-66
2023/12/26 03:16:53;;;;;;;1.00;0.80;;;11.90;99.90;;;;;;6209585;23;20013;-65
2023/12/26 03:19:39;;;;;;;1.48;1.20;;;11.90;99.90;;;;;;6209550;23;20091;-66
2023/12/26 03:22:25;;;;;;;0.98;0.60;;;11.90;99.90;;;;;;6210758;23;20322;-64
2023/12/26 03:25:11;;;;;;;0.50;0.50;;;11.90;99.90;;;;;;6209812;23;20020;-64
2023/12/26 03:27:57;;;;;;;0.55;0.50;;;11.80;99.90;;;;;;6211389;23;20009;-64
2023/12/26 03:30:43;;;;;;;1.13;0.40;;;11.80;99.90;;;;;;6211079;23;20004;-65
2023/12/26 03:33:29;;;;;;;0.38;0.25;;;11.80;99.90;;;;;;6210406;23;20013;-65
2023/12/26 03:36:15;;;;;;;0.43;0.40;;;11.80;99.90;;;;;;6208791;23;20016;-64
2023/12/26 03:39:02;;;;;;;0.40;0.40;;;11.70;99.90;;;;;;6208915;23;20425;-65
2023/12/26 03:41:48;;;;;;;0.60;0.40;;;11.70;99.90;;;;;;6210251;23;20107;-66
2023/12/26 03:44:35;;;;;;;0.22;0.22;;;11.70;99.90;;;;;;6209154;23;20384;-64
2023/12/26 03:47:21;;;;;;;0.40;0.40;;;11.60;99.90;;;;;;6211395;23;20028;-65
2023/12/26 03:50:07;;;;;;;0.32;0.30;;;11.60;99.90;;;;;;6211978;23;20009;-64
2023/12/26 03:52:53;;;;;;;0.65;0.22;;;11.60;99.90;;;;;;6209808;23;20071;-65
2023/12/26 03:55:40;;;;;;;0.20;0.20;;;11.60;99.90;;;;;;6207889;23;20041;-65
2023/12/26 03:58:26;;;;;;;0.30;0.30;;;11.50;99.90;;;;;;6187889;23;20020;-65
2023/12/26 04:01:12;;;;;;;0.30;0.30;;;11.60;99.90;;;;;;6209650;23;20031;-65
2023/12/26 04:03:58;;;;;;;0.20;0.20;;;11.60;99.90;;;;;;6209333;23;20004;-63
2023/12/26 04:06:44;;;;;;;0.70;0.52;;;11.60;99.90;;;;;;6209352;23;20019;-66
2023/12/26 04:09:30;;;;;;;0.30;0.30;;;11.60;99.90;;;;;;6187768;23;20580;-64
2023/12/26 04:12:16;;;;;;;0.28;0.28;;;11.60;99.90;;;;;;6210906;23;20476;-64
2023/12/26 04:15:03;;;;;;;0.43;0.30;;;11.60;99.90;;;;;;6211192;23;20009;-64
2023/12/26 04:17:49;;;;;;;0.55;0.35;;;11.60;99.90;;;;;;6212766;23;20094;-65
2023/12/26 04:20:35;;;;;;;0.40;0.40;;;11.60;99.90;;;;;;6210297;23;20430;-64
2023/12/26 04:23:21;;;;;;;0.60;0.45;;;11.60;99.90;;;;;;6211417;23;20449;-64
2023/12/26 04:26:07;;;;;;;0.60;0.50;;;11.60;99.90;;;;;;6212639;23;20012;-64
2023/12/26 04:28:53;;;;;;;0.50;0.45;;;11.60;99.90;;;;;;6211186;23;20056;-64
2023/12/26 04:31:39;;;;;;;2.05;0.65;;;11.60;99.90;;;;;;6212855;23;20008;-64
2023/12/26 04:34:25;;;;;;;0.38;0.38;;;11.60;99.90;;;;;;6211245;23;20071;-64
2023/12/26 04:37:11;;;;;;;0.43;0.40;;;11.60;99.90;;;;;;6212942;23;20449;-64
2023/12/26 04:39:57;;;;;;;0.90;0.40;;;11.60;99.90;;;;;;6211125;23;20079;-64
2023/12/26 04:42:44;;;;;;;2.85;0.70;;;11.60;99.90;;;;;;6212453;23;20012;-64
2023/12/26 04:45:30;;;;;;;0.43;0.40;;;11.60;99.90;;;;;;6212754;23;20016;-64
2023/12/26 04:48:16;;;;;;;0.63;0.40;;;11.60;99.90;;;;;;6211232;23;20074;-65
2023/12/26 04:51:02;;;;;;;0.30;0.30;;;11.60;99.90;;;;;;6211017;23;20009;-64
2023/12/26 04:53:51;;;;;;;0.45;0.45;;;11.70;99.90;;;;;;6212261;23;20425;-64
2023/12/26 04:56:39;;;;;;;0.40;0.32;;;11.70;99.90;;;;;;6212424;23;20017;-64
2023/12/26 04:59:25;;;;;;;0.73;0.30;;;11.70;99.90;;;;;;6211672;23;20009;-64
2023/12/26 05:02:12;;;;;;;1.20;0.50;;;11.70;99.90;;;;;;6188929;23;20055;-65
2023/12/26 05:04:58;;;;;;;0.75;0.43;;;11.70;99.90;;;;;;6210841;23;20008;-65
2023/12/26 05:07:44;;;;;;;0.43;0.43;;;11.70;99.90;;;;;;6211380;22;20102;-65
2023/12/26 05:10:32;;;;;;;0.20;0.20;;;11.70;99.90;;;;;;6211357;23;20035;-66
2023/12/26 05:13:18;;;;;;;0.32;0.32;;;11.70;99.90;;;;;;6212462;23;20023;-66
2023/12/26 05:16:05;;;;;;;0.20;0.20;;;11.70;99.90;;;;;;6211685;23;20009;-66
2023/12/26 05:18:51;;;;;;;0.43;0.38;;;11.70;99.90;;;;;;6211544;23;20063;-66
2023/12/26 05:21:37;;;;;;;0.98;0.28;;;11.70;99.90;;;;;;6191064;23;20334;-65
2023/12/26 05:24:23;;;;;;;0.57;0.40;;;11.70;99.90;;;;;;6210435;23;20322;-66
2023/12/26 05:27:11;;;;;;;0.38;0.38;;;11.70;99.90;;;;;;6211218;23;20470;-66
2023/12/26 05:29:57;;;;;;;0.50;0.50;;;11.70;99.90;;;;;;6211331;23;20095;-66
2023/12/26 05:32:43;;;;;;;1.48;0.60;;;11.70;99.90;;;;;;6211613;23;20008;-65
2023/12/26 05:35:29;;;;;;;1.48;0.70;;;11.70;99.90;;;;;;6211663;23;20445;-65
2023/12/26 05:38:15;;;;;;;1.17;0.75;;;11.70;99.90;;;;;;6211111;23;20063;-65
2023/12/26 05:41:04;;;;;;;0.95;0.40;;;11.80;99.90;;;;;;6210465;23;20457;-65
2023/12/26 05:43:51;;;;;;;0.63;0.63;;;11.80;99.90;;;;;;6211193;23;20005;-66
2023/12/26 05:46:37;;;;;;;0.47;0.47;;;11.70;99.90;;;;;;6210990;23;20016;-66
2023/12/26 05:49:23;;;;;;;2.17;0.50;;;11.70;99.90;;;;;;6210869;23;20011;-66
2023/12/26 05:52:09;;;;;;;0.50;0.50;;;11.70;99.90;;;;;;6210876;23;20449;-66
2023/12/26 05:54:55;;;;;;;0.57;0.50;;;11.70;99.90;;;;;;6212437;23;20040;-66
2023/12/26 05:57:41;;;;;;;1.08;0.80;;;11.80;99.90;;;;;;6211648;23;20352;-66
2023/12/26 06:00:27;;;;;;;0.63;0.50;;;11.70;99.90;;;;;;6211428;23;20059;-66
2023/12/26 06:03:13;;;;;;;0.60;0.50;;;11.80;99.90;;;;;;6210343;23;20052;-65
2023/12/26 06:05:59;;;;;;;0.57;0.57;;;11.80;99.90;;;;;;6190696;23;20013;-66
2023/12/26 06:08:45;;;;;;;0.20;0.20;;;11.80;99.90;;;;;;6209909;23;20020;-66
2023/12/26 06:11:31;;;;;;;0.93;0.57;;;11.80;99.90;;;;;;6211040;23;20080;-66
2023/12/26 06:14:17;;;;;;;0.20;0.20;;;11.70;99.90;;;;;;6210527;23;20008;-65
2023/12/26 06:17:03;;;;;;;0.60;0.43;;;11.70;99.90;;;;;;6210874;23;20008;-66
2023/12/26 06:19:49;;;;;;;0.52;0.52;;;11.80;99.90;;;;;;6210484;23;20015;-65
2023/12/26 06:22:35;;;;;;;0.40;0.40;;;11.80;99.90;;;;;;6212202;23;20028;-64
2023/12/26 06:25:21;;;;;;;0.43;0.43;;;11.80;99.90;;;;;;6210714;23;20009;-65
2023/12/26 06:28:07;;;;;;;1.65;0.60;;;11.80;99.90;;;;;;6209850;23;20012;-65
2023/12/26 06:30:53;;;;;;;1.00;0.73;;;11.80;99.90;;;;;;6210715;23;20005;-66
2023/12/26 06:33:40;;;;;;;0.85;0.60;;;11.80;99.90;;;;;;6209680;23;20004;-66
2023/12/26 06:36:30;;;;;;;0.38;0.38;;;11.80;99.90;;;;;;6190070;23;20017;-66
2023/12/26 06:39:16;;;;;;;0.40;0.40;;;11.70;99.90;;;;;;6209961;23;20009;-63
2023/12/26 06:42:03;;;;;;;0.32;0.20;;;11.70;99.90;;;;;;6210553;23;20413;-65
2023/12/26 06:44:49;;;;;;;0.22;0.22;;;11.70;99.90;;;;;;6211325;23;20017;-65
2023/12/26 06:47:35;;;;;;;0.90;0.45;;;11.70;99.90;;;;;;6211282;23;20012;-64
2023/12/26 06:50:21;;;;;;;0.43;0.40;;;11.70;99.90;;;;;;6210375;23;20013;-65
2023/12/26 06:53:07;;;;;;;1.15;0.32;;;11.70;99.90;;;;;;6211380;23;20345;-65
2023/12/26 06:55:53;;;;;;;0.30;0.30;;;11.70;99.90;;;;;;6209843;23;20009;-65
2023/12/26 06:58:39;;;;;;;0.10;0.10;;;11.70;99.90;;;;;;6209634;23;20437;-65
2023/12/26 07:01:26;;;;;;;0.40;0.40;;;11.70;99.90;;;;;;6209589;23;20067;-65
2023/12/26 07:04:12;;;;;;;0.57;0.38;;;11.70;99.90;;;;;;6210017;23;20008;-64
2023/12/26 07:06:58;;;;;;;1.00;0.90;;;11.60;99.90;;;;;;6210493;23;20425;-64
2023/12/26 07:09:44;;;;;;;0.28;0.22;;;11.60;99.90;;;;;;6209730;23;20016;-65
2023/12/26 07:12:30;;;;;;;0.75;0.32;;;11.60;99.90;;;;;;6211115;23;20008;-65
2023/12/26 07:15:16;;;;;;;1.08;0.30;;;11.50;99.90;;;;;;6210140;23;20102;-65
2023/12/26 07:18:02;;;;;;;0.30;0.20;;;11.50;99.90;;;;;;6210913;23;20008;-65
2023/12/26 07:20:48;;;;;;;0.30;0.30;;;11.50;99.90;;;;;;6209394;23;20032;-65
2023/12/26 07:23:34;;;;;;;0.82;0.55;;;11.40;99.90;;;;;;6208967;23;20015;-65
2023/12/26 07:26:22;;;;;;;0.40;0.40;;;11.40;99.90;;;;;;6209839;23;20008;-65
2023/12/26 07:29:08;;;;;;;0.60;0.60;;;11.40;99.90;;;;;;6210082;23;20012;-65
2023/12/26 07:31:54;;;;;;;0.32;0.32;;;11.40;99.90;;;;;;6211093;23;20074;-65
2023/12/26 07:34:41;;;;;;;0.85;0.60;;;11.40;99.90;;;;;;6210824;23;20067;-65
2023/12/26 07:37:27;;;;;;;0.57;0.57;;;11.30;99.90;;;;;;6210761;23;20027;-65
2023/12/26 07:40:13;;;;;;;0.60;0.60;;;11.30;99.90;;;;;;6209919;23;20008;-64
2023/12/26 07:42:59;;;;;;;0.77;0.77;;;11.30;99.90;;;;;;6209874;23;20024;-65
2023/12/26 07:45:45;;;;;;;0.70;0.60;;;11.20;99.90;;;;;;6208579;23;20457;-64
2023/12/26 07:48:31;;;;;;;0.85;0.70;;;11.20;99.90;;;;;;6188752;23;20058;-65
2023/12/26 07:51:17;;;;;;;0.77;0.60;;;11.10;99.90;;;;;;6210300;23;20012;-65
2023/12/26 07:54:03;;;;;;;1.83;0.80;;;11.10;99.90;;;;;;6206894;23;20047;-63
2023/12/26 07:56:49;;;;;;;1.50;0.80;;;11.10;99.90;;;;;;6208114;23;20131;-65
2023/12/26 07:59:35;;;;;;;1.52;1.00;;;11.10;99.90;;;;;;6210421;23;20009;-65
2023/12/26 08:02:21;;;;;;;2.80;1.10;;;11.10;99.90;;;;;;6210375;23;20457;-66
2023/12/26 08:05:08;;;;;;;1.42;0.80;;;11.10;99.90;;;;;;6207528;23;20012;-65
2023/12/26 08:07:54;;;;;;;1.75;0.93;;;11.10;99.90;;;;;;6208066;23;20016;-63
2023/12/26 08:10:44;;;;;;;1.73;0.90;;;11.10;99.90;;;;;;6206623;23;20020;-64
2023/12/26 08:13:30;;;;;;;3.53;0.95;;;11.10;99.90;;;;;;6209149;23;20015;-63
2023/12/26 08:16:16;;;;;;;2.13;0.82;;;11.10;99.90;;;;;;6209820;23;20211;-64
2023/12/26 08:19:02;;;;;;;1.63;0.70;;;11.10;99.90;;;;;;6208894;23;20008;-63
2023/12/26 08:21:48;;;;;;;1.15;0.65;;;11.10;99.90;;;;;;6208917;23;20098;-63
2023/12/26 08:24:34;;;;;;;1.10;0.88;;;11.10;99.90;;;;;;6210347;23;20040;-62
2023/12/26 08:27:22;;;;;;;1.08;0.60;;;11.10;99.90;;;;;;6209221;23;20013;-63
2023/12/26 08:30:08;;;;;;;1.90;0.90;;;11.10;99.90;;;;;;6209732;23;20013;-61
2023/12/26 08:32:54;;;;;;;1.10;0.88;;;11.10;99.90;;;;;;6187493;23;20027;-62
2023/12/26 08:35:41;;;;;;;1.73;0.82;;;11.10;99.90;;;;;;6208448;23;20008;-61
2023/12/26 08:38:28;;;;;;;5.47;1.67;;;11.10;99.90;;;;;;6208643;23;20009;-62
2023/12/26 08:41:14;;;;;;;3.80;0.98;;;11.10;99.90;;;;;;6209597;23;20365;-62
2023/12/26 08:44:00;;;;;;;1.70;0.77;;;11.10;99.90;;;;;;6210110;23;20023;-62
2023/12/26 08:46:46;;;;;;;2.42;1.00;;;11.10;99.90;;;;;;6209806;23;20013;-62
2023/12/26 08:49:31;;;;;;;1.77;1.05;;;11.10;99.90;;;;;;6208565;23;20017;-62
2023/12/26 08:52:19;;;;;;;1.50;0.68;;;11.10;99.90;;;;;;6209165;23;20012;-62
2023/12/26 08:55:05;;;;;;;0.90;0.57;;;11.10;99.90;;;;;;6209033;23;20478;-62
2023/12/26 08:57:51;;;;;;;2.83;1.23;;;11.10;99.90;;;;;;6208865;23;20015;-62
2023/12/26 09:00:37;;;;;;;3.85;1.58;;;11.10;99.90;;;;;;6211308;23;20430;-63
2023/12/26 09:03:23;;;;;;;2.22;1.00;;;11.10;99.90;;;;;;6210937;23;20017;-62
2023/12/26 09:06:10;;;;;;;2.30;1.10;;;11.20;99.90;;;;;;6210418;23;20004;-62
2023/12/26 09:08:56;;;;;;;1.80;1.10;;;11.10;99.90;;;;;;6210217;23;20508;-62
2023/12/26 09:11:42;;;;;;;1.75;0.90;;;11.20;99.90;;;;;;6210475;23;20015;-63
2023/12/26 09:14:28;;;;;;;2.10;0.80;;;11.10;99.90;;;;;;6209976;23;20012;-63
2023/12/26 09:17:14;;;;;;;2.92;1.38;;;11.10;99.90;;;;;;6209187;23;20028;-62
2023/12/26 09:20:00;;;;;;;1.95;1.05;;;11.10;99.90;;;;;;6210895;23;20015;-62
2023/12/26 09:22:46;;;;;;;2.65;1.00;;;11.10;99.90;;;;;;6210034;23;20020;-65
2023/12/26 09:25:34;;;;;;;1.98;1.13;;;11.10;99.90;;;;;;6209904;23;20490;-62
2023/12/26 09:28:20;;;;;;;2.13;1.40;;;11.10;99.90;;;;;;6210125;23;20505;-63
2023/12/26 09:31:06;;;;;;;2.22;1.30;;;11.10;99.90;;;;;;6211286;23;20008;-63
2023/12/26 09:33:52;;;;;;;2.78;1.20;;;11.10;99.90;;;;;;6210999;23;20005;-62
2023/12/26 09:36:38;;;;;;;2.78;1.17;;;11.10;99.90;;;;;;6211841;23;20012;-62
2023/12/26 09:39:24;;;;;;;2.42;1.38;;;11.10;99.90;;;;;;6207565;23;20012;-62
2023/12/26 09:42:14;;;;;;;10.70;2.28;;;11.10;99.90;;;;;;6210877;23;20023;-62
2023/12/26 09:45:03;;;;;;;2.28;1.13;;;11.10;99.90;;;;;;6210844;23;20005;-63
2023/12/26 09:47:49;;;;;;;4.22;1.40;;;11.20;99.90;;;;;;6211078;23;20017;-63
2023/12/26 09:50:35;;;;;;;4.30;1.60;;;11.20;99.90;;;;;;6210847;23;20009;-63
2023/12/26 09:53:24;;;;;;;3.42;2.05;;;11.20;99.90;;;;;;6209484;23;20108;-62
2023/12/26 09:56:11;;;;;;;2.75;1.35;;;11.20;99.90;;;;;;6210014;23;20005;-62
2023/12/26 09:58:59;;;;;;;3.67;1.60;;;11.30;99.90;;;;;;6209480;23;20084;-63
2023/12/26 10:01:46;;;;;;;4.75;1.55;;;11.20;99.90;;;;;;6211909;23;20016;-63
2023/12/26 10:04:32;;;;;;;3.78;1.15;;;11.30;99.90;;;;;;6210605;23;20015;-62
2023/12/26 10:07:18;;;;;;;4.00;1.85;;;11.30;99.90;;;;;;6210291;23;20430;-63
2023/12/26 10:10:05;;;;;;;3.95;1.63;;;11.30;99.90;;;;;;6209297;23;20017;-62
2023/12/26 10:12:53;;;;;;;2.22;1.23;;;11.30;99.90;;;;;;6209108;23;20048;-62
2023/12/26 10:15:42;;;;;;;6.07;1.38;;;11.30;99.90;;;;;;6206998;23;20012;-62
2023/12/26 10:18:29;;;;;;;3.15;1.30;;;11.30;99.90;;;;;;6209492;23;20012;-62
2023/12/26 10:21:15;;;;;;;2.65;1.48;;;11.30;99.90;;;;;;6209450;23;20016;-62
2023/12/26 10:24:01;;;;;;;6.60;2.15;;;11.40;99.90;;;;;;6210743;23;20013;-68
2023/12/26 10:26:47;;;;;;;3.80;1.80;;;11.40;99.90;;;;;;6210331;23;20052;-62
2023/12/26 10:29:33;;;;;;;6.32;1.67;;;11.50;99.90;;;;;;6208778;23;20013;-63
2023/12/26 10:32:20;;;;;;;3.53;1.20;;;11.50;99.90;;;;;;6209872;23;20019;-64
2023/12/26 10:35:16;;;;;;;3.55;2.47;;;11.50;99.90;;;;;;6210671;23;20344;-64
2023/12/26 10:38:02;;;;;;;4.95;1.75;;;11.60;99.90;;;;;;6210481;23;20370;-63
2023/12/26 10:40:48;;;;;;;1.67;1.27;;;11.50;99.90;;;;;;6210974;23;20016;-63
2023/12/26 10:43:40;;;;;;;6.95;2.17;;;11.60;99.90;;;;;;6207972;23;20044;-63
2023/12/26 10:46:27;;;;;;;6.88;1.90;;;11.50;99.90;;;;;;6208225;23;20506;-62
2023/12/26 10:49:25;;;;;;;4.25;1.80;;;11.50;99.90;;;;;;6211318;23;20009;-62
2023/12/26 10:52:13;;;;;;;6.70;2.20;;;11.50;99.90;;;;;;6189600;23;20008;-62
2023/12/26 10:55:04;;;;;;;4.57;1.60;;;11.50;99.90;;;;;;6210235;23;20036;-62
2023/12/26 10:57:51;;;;;;;3.22;1.40;;;11.50;99.90;;;;;;6211235;23;20008;-62
2023/12/26 11:01:12;;;;;;;6.40;2.30;;;11.40;99.90;;;;;;6206305;23;20009;-63
2023/12/26 13:51:25;;;;;;;7.43;1.80;;;11.50;96.90;;;;;;6208811;23;20424;-63
2023/12/26 13:54:48;;;;;;;3.80;1.80;;;11.40;96.60;;;;;;6212139;23;20092;-63
2023/12/26 13:58:12;;;;;;;4.80;2.03;;;11.40;96.30;;;;;;6210205;23;20754;-63
2023/12/26 14:01:35;;;;;;;4.00;1.23;;;11.40;96.30;;;;;;6209008;23;20013;-63
2023/12/26 14:04:59;;;;;;;4.55;1.48;;;11.40;96.20;;;;;;6212562;23;20016;-65
2023/12/26 14:08:22;;;;;;;3.45;1.75;;;11.40;96.20;;;;;;6210808;23;20047;-63
2023/12/26 14:11:46;;;;;;;3.63;1.40;;;11.40;96.10;;;;;;6210675;23;20009;-62
2023/12/26 14:15:10;;;;;;;3.00;1.30;;;11.40;96.20;;;;;;6207056;23;20009;-63
2023/12/26 14:18:34;;;;;;;4.72;1.30;;;11.40;96.30;;;;;;6209823;23;20480;-63
2023/12/26 14:21:57;;;;;;;4.90;1.77;;;11.40;96.10;;;;;;6210676;23;20005;-63
2023/12/26 14:25:20;;;;;;;2.75;1.50;;;11.40;96.10;;;;;;6212364;23;20009;-63
2023/12/26 14:28:44;;;;;;;5.22;1.70;;;11.40;96.20;;;;;;6209618;23;20008;-63
2023/12/26 14:32:07;;;;;;;4.82;2.15;;;11.40;95.90;;;;;;6208949;23;20016;-63
2023/12/26 14:35:30;;;;;;;3.22;1.42;;;11.30;95.50;;;;;;6210284;23;20008;-63
2023/12/26 14:38:54;;;;;;;5.28;1.70;;;11.30;95.80;;;;;;6206503;23;20046;-63
2023/12/26 14:42:17;;;;;;;6.00;2.15;;;11.30;95.80;;;;;;6209577;23;20522;-63
2023/12/26 14:45:40;;;;;;;3.58;1.60;;;11.30;95.80;;;;;;6211223;23;20397;-63
2023/12/26 14:49:03;;;;;;;9.77;1.95;;;11.30;95.80;;;;;;6211234;23;20373;-64
2023/12/26 14:52:27;;;;;;;5.03;1.80;;;11.30;95.80;;;;;;6208307;23;20119;-63
2023/12/26 14:55:50;;;;;;;3.95;1.42;;;11.30;95.80;;;;;;6210497;23;20456;-63
2023/12/26 14:59:14;;;;;;;4.65;1.73;;;11.30;95.80;;;;;;6210274;23;20489;-63
2023/12/26 15:02:02;;;;;;;3.83;1.60;;;11.30;95.80;;;;;;6208646;23;20393;-63
2023/12/26 15:04:48;;;;;;;7.97;2.05;;;11.30;95.80;;;;;;6210372;23;20039;-63
2023/12/26 15:07:34;;;;;;;7.63;2.15;;;11.30;95.80;;;;;;6210145;23;20015;-63
2023/12/26 15:10:20;;;;;;;6.93;1.60;;;11.30;95.80;;;;;;6209725;23;20074;-63
2023/12/26 15:13:06;;;;;;;8.35;1.70;;;11.30;95.80;;;;;;6209972;23;20012;-63
2023/12/26 15:15:52;;;;;;;4.47;2.13;;;11.20;95.60;;;;;;6209855;23;20004;-63
2023/12/26 15:18:38;;;;;;;7.10;2.33;;;11.10;95.60;;;;;;6209294;23;20017;-63
2023/12/26 15:21:24;;;;;;;9.30;1.73;;;11.10;95.60;;;;;;6209344;23;20071;-62
2023/12/26 15:24:12;;;;;;;5.47;1.88;;;11.00;95.60;;;;;;6210791;23;20168;-63
2023/12/26 15:26:58;;;;;;;4.15;2.35;;;11.00;95.80;;;;;;6211069;23;20012;-63
2023/12/26 15:29:46;;;;;;;3.88;1.45;;;10.90;95.60;;;;;;6210672;23;20034;-63
2023/12/26 15:32:32;;;;;;;4.15;1.50;;;10.90;95.50;;;;;;6209729;23;20055;-62
2023/12/26 15:35:18;;;;;;;7.32;2.03;;;10.90;95.70;;;;;;6207222;23;20068;-63
2023/12/26 15:38:04;;;;;;;3.80;2.05;;;10.80;95.60;;;;;;6188967;23;20151;-65
2023/12/26 15:40:50;;;;;;;6.00;1.90;;;10.80;95.70;;;;;;6205099;23;20112;-68
2023/12/26 15:43:36;;;;;;;4.35;1.60;;;10.80;95.80;;;;;;6208484;23;20103;-65
2023/12/26 15:46:24;;;;;;;3.47;1.70;;;10.70;95.70;;;;;;6210407;23;20012;-64
2023/12/26 15:49:11;;;;;;;4.03;1.70;;;10.60;95.70;;;;;;6209952;23;20051;-65
2023/12/26 15:51:57;;;;;;;4.68;1.85;;;10.70;95.70;;;;;;6205677;23;20017;-64
2023/12/26 15:54:43;;;;;;;3.83;1.70;;;10.60;95.80;;;;;;6207743;23;20095;-63
2023/12/26 17:56:47;;;;;;;4.63;2.33;;;10.70;96.10;;;;;;6161325;23;20045;-61
2023/12/26 17:59:33;;;;;;;6.35;1.77;;;10.70;96.20;;;;;;6151735;23;20041;-61
2023/12/26 18:02:19;;;;;;;6.07;2.70;;;10.70;96.10;;;;;;6150653;23;20101;-62
2023/12/26 18:05:06;;;;;;;5.40;2.05;;;10.80;96.20;;;;;;6150151;23;20013;-61
2023/12/26 18:07:52;;;;;;;5.82;2.47;;;10.80;96.10;;;;;;6151372;23;20021;-61
2023/12/26 18:10:38;;;;;;;8.10;2.28;;;10.80;96.20;;;;;;6153620;23;20016;-61
2023/12/26 18:13:24;;;;;;;4.93;1.67;;;10.80;96.30;;;;;;6148930;23;20479;-61
2023/12/26 18:16:10;;;;;;;3.30;1.92;;;10.80;96.30;;;;;;6150163;23;20044;-62
2023/12/26 18:18:56;;;;;;;6.53;2.35;;;10.80;96.20;;;;;;6151160;23;20062;-61
2023/12/26 18:21:44;;;;;;;4.70;1.65;;;10.80;96.20;;;;;;6150735;23;20021;-61
2023/12/26 18:24:30;;;;;;;6.25;1.88;;;10.80;96.10;;;;;;6150415;23;20079;-62
2023/12/26 18:27:16;;;;;;;4.70;1.52;;;10.80;96.20;;;;;;6148095;23;20092;-61
2023/12/26 18:30:03;;;;;;;3.85;1.73;;;10.70;96.30;;;;;;6130157;23;20438;-61
2023/12/26 18:32:49;;;;;;;4.30;2.75;;;10.70;96.50;;;;;;6150965;23;20013;-62
2023/12/26 18:35:35;;;;;;;5.53;1.98;;;10.70;96.70;;;;;;6151855;23;20013;-61
2023/12/26 18:38:21;;;;;;;5.93;1.80;;;10.60;96.90;;;;;;6148588;23;20338;-61
2023/12/26 18:41:07;;;;;;;6.03;2.55;;;10.60;97.20;;;;;;6152859;23;20033;-62
2023/12/26 18:43:53;;;;;;;5.32;1.80;;;10.50;97.50;;;;;;6152100;23;20018;-62
2023/12/26 18:46:41;;;;;;;4.95;1.65;;;10.30;98.10;;;;;;6150851;23;20105;-61
2023/12/26 18:49:27;;;;;;;3.92;1.55;;;10.20;98.30;;;;;;6151657;23;20017;-61
2023/12/26 18:52:14;;;;;;;3.22;1.10;;;10.10;98.70;;;;;;6153238;23;20017;-61
2023/12/26 18:55:01;;;;;;;3.85;1.40;;;9.90;98.90;;;;;;6151077;23;20351;-61
2023/12/26 18:57:47;;;;;;;2.90;1.15;;;9.80;98.90;;;;;;6177008;23;20361;-61
2023/12/26 19:00:33;;;;;;;3.65;1.20;;;9.80;99.20;;;;;;6180403;23;20036;-62
2023/12/26 19:03:19;;;;;;;3.83;1.48;;;9.70;99.30;;;;;;6182025;23;20107;-61
2023/12/26 19:06:05;;;;;;;1.05;0.90;;;9.70;99.20;;;;;;6180530;23;20037;-62
2023/12/26 19:08:51;;;;;;;2.75;1.45;;;9.60;99.30;;;;;;6182478;23;20009;-62
2023/12/26 19:11:37;;;;;;;2.38;1.27;;;9.60;99.30;;;;;;6181168;23;20013;-61
2023/12/26 19:14:23;;;;;;;3.90;1.30;;;9.60;99.50;;;;;;6179941;23;20544;-61
2023/12/26 19:17:09;;;;;;;3.10;2.17;;;9.50;99.50;;;;;;6179489;23;20468;-61
2023/12/26 19:19:55;;;;;;;1.85;1.15;;;9.40;99.60;;;;;;6181159;23;20017;-62
2023/12/26 19:22:41;;;;;;;4.95;2.42;;;9.40;99.60;;;;;;6179685;23;20028;-62
2023/12/26 19:25:28;;;;;;;2.97;2.20;;;9.40;99.60;;;;;;6180244;23;20009;-62
2023/12/26 19:28:14;;;;;;;3.25;1.40;;;9.40;99.70;;;;;;6181165;23;20016;-62